Buoy 52609

sailwx.info

Track history (hours):
 
Tides and Currents Weather Stations Pressure Air Temp Water Temp Dewpoint Dewpoint Depression Visibility Wind Speed Wind Dir Waves Ship Positions

Drifting buoy 52609

Last reported at 2014-Oct-31 17:00 UTC. Time now 2014-Oct-31 19:30 UTC.
Position N 13°53' E 151°41'.

Water temperature 29.4 ° C

Date/timePositionNaut miles runAvg speedWind from/ knotsBaromVisibWave heightAir tempDewpointWater temp
2014-Oct-31 17:00N 13°53' E 151°41'1 0.4 29.4
2014-Oct-31 15:00N 13°53' E 151°42'0 0.0 29.4
2014-Oct-31 12:00N 13°53' E 151°42'1 0.5 29.4
2014-Oct-31 11:00N 13°53' E 151°43'0 0.0 29.5
2014-Oct-31 10:00N 13°53' E 151°43'2 1.2 29.5
2014-Oct-31 08:00N 13°53' E 151°45'1 1.1 29.5
2014-Oct-31 07:00N 13°52' E 151°46'0 0.0 29.5
2014-Oct-31 06:00N 13°52' E 151°46'2 1.9 29.5
2014-Oct-31 05:00N 13°52' E 151°48'1 0.7 29.5
2014-Oct-31 03:00N 13°51' E 151°49'2 0.6 29.5
2014-Oct-31 00:00N 13°52' E 151°51'3 3.1 29.5
2014-Oct-30 23:00N 13°52' E 151°54'1 0.3 29.5
2014-Oct-30 19:00N 13°53' E 151°55'4 1.1 29.5
2014-Oct-30 15:00N 13°54' E 151°59'4 0.6 29.5
2014-Oct-30 08:00N 13°56' E 152°03'0 0.1 29.6
2014-Oct-30 07:00N 13°56' E 152°03'1 0.6 29.6
2014-Oct-30 05:00N 13°57' E 152°03'1 0.5 29.7
2014-Oct-30 03:00N 13°58' E 152°04'2 0.5 29.7
2014-Oct-29 23:00N 13°59' E 152°06'2 0.6 29.5
2014-Oct-29 20:00N 14°00' E 152°07'0 0.0 29.3
2014-Oct-29 19:00N 14°00' E 152°07'0 0.5 29.4
2014-Oct-29 18:00N 14°00' E 152°07'0 0.4 29.4
2014-Oct-29 17:00N 14°00' E 152°07'2 0.3 29.4
2014-Oct-29 12:00N 13°59' E 152°08'1 0.6 29.5
2014-Oct-29 11:00N 13°59' E 152°08'4 1.1 29.5
2014-Oct-29 07:00N 13°58' E 152°13'1 0.5 29.6
2014-Oct-29 05:00N 13°57' E 152°14'2 1.9 29.6
2014-Oct-29 04:00N 13°57' E 152°16'0 0.0 29.6
2014-Oct-29 03:00N 13°57' E 152°16'0 0.0 29.6
2014-Oct-29 02:00N 13°57' E 152°16'3 1.6 29.6
2014-Oct-29 00:00N 13°58' E 152°19'3 0.6 29.5
2014-Oct-28 18:00N 13°59' E 152°22'2 0.8 29.5
2014-Oct-28 16:00N 13°60' E 152°23'1 0.3 29.5
2014-Oct-28 12:00N 13°60' E 152°25'2 0.9 29.5
2014-Oct-28 10:00N 14°00' E 152°26'1 0.2 29.5
2014-Oct-28 07:00N 14°00' E 152°27'0 0.1 29.6
2014-Oct-28 06:00N 14°00' E 152°27'0 0.1 29.6
2014-Oct-28 05:00N 14°00' E 152°27'2 0.9 29.6
2014-Oct-28 03:00N 13°59' E 152°28'1 0.1 29.6
2014-Oct-27 19:00N 13°59' E 152°28'0 0.2 29.6
2014-Oct-27 18:00N 13°59' E 152°28'1 0.7 29.7
2014-Oct-27 17:00N 13°59' E 152°28'0 0.0 29.6
2014-Oct-27 16:00N 13°59' E 152°28'0 0.4 29.7
2014-Oct-27 15:00N 13°59' E 152°29'1 0.4 29.7
2014-Oct-27 11:00N 13°58' E 152°29'0 0.5 29.7
2014-Oct-27 10:00N 13°57' E 152°30'1 0.3 29.7
2014-Oct-27 08:00N 13°57' E 152°30'0 0.0 29.7
2014-Oct-27 06:00N 13°57' E 152°30'0 0.0 29.8
2014-Oct-27 05:00N 13°57' E 152°30'1 1.2 29.8
2014-Oct-27 04:00N 13°57' E 152°31'3 0.5 29.8
2014-Oct-26 23:00N 13°59' E 152°33'0 0.0 29.7
2014-Oct-26 22:00N 13°59' E 152°33'0 0.0 29.7
2014-Oct-26 20:00N 13°59' E 152°33'0 0.4 29.7
2014-Oct-26 19:00N 13°59' E 152°33'1 1.0 29.7
2014-Oct-26 18:00N 14°00' E 152°34'0 0.0 29.7
2014-Oct-26 16:00N 14°00' E 152°34'0 0.3 29.7
2014-Oct-26 15:00N 14°00' E 152°34'1 0.3 29.7
2014-Oct-26 12:00N 14°01' E 152°35'0 0.0 29.7
2014-Oct-26 11:00N 14°01' E 152°35'1 0.9 29.8
2014-Oct-26 10:00N 14°02' E 152°35'1 0.3 29.8
2014-Oct-26 07:00N 14°01' E 152°36'0 0.3 29.8
2014-Oct-26 06:00N 14°01' E 152°36'1 0.7 29.8
2014-Oct-26 04:00N 14°02' E 152°37'1 0.4 29.9
2014-Oct-26 02:00N 14°03' E 152°38'2 0.4 29.9
2014-Oct-25 20:00N 14°02' E 152°40'1 1.4 29.7
2014-Oct-25 19:00N 14°02' E 152°41'2 2.1 29.7
2014-Oct-25 18:00N 14°04' E 152°43'0 0.3 29.7
2014-Oct-25 17:00N 14°04' E 152°42'0 0.3 29.8
2014-Oct-25 16:00N 14°04' E 152°43'1 1.1 29.8
2014-Oct-25 15:00N 14°05' E 152°43'1 0.3 29.8
2014-Oct-25 11:00N 14°06' E 152°43'2 1.9 29.8
2014-Oct-25 10:00N 14°07' E 152°45'0 0.0 29.8
2014-Oct-25 09:00N 14°07' E 152°45'2 0.5 29.8
2014-Oct-25 06:00N 14°07' E 152°47'1 0.4 29.8
2014-Oct-25 04:00N 14°08' E 152°47'1 0.4 29.9
2014-Oct-25 00:00N 14°09' E 152°48'2 2.4 29.9
2014-Oct-24 23:00N 14°09' E 152°50'0 0.0 29.9
2014-Oct-24 21:00N 14°09' E 152°50'0 0.2 29.8
2014-Oct-24 19:00N 14°09' E 152°50'1 1.5 29.9
2014-Oct-24 18:00N 14°10' E 152°52'0 0.2 29.9
2014-Oct-24 17:00N 14°10' E 152°52'1 0.4 29.9
2014-Oct-24 15:00N 14°10' E 152°52'0 0.0 29.9
2014-Oct-24 14:00N 14°10' E 152°52'3 1.5 29.9
2014-Oct-24 12:00N 14°13' E 152°55'1 1.1 29.9
2014-Oct-24 11:00N 14°12' E 152°56'0 0.0 30.0
2014-Oct-24 10:00N 14°12' E 152°56'1 0.3 30.0
2014-Oct-24 08:00N 14°12' E 152°55'1 0.6 30.1
2014-Oct-24 06:00N 14°12' E 152°56'2 0.8 30.3
2014-Oct-24 04:00N 14°14' E 152°57'0 0.0 30.3
2014-Oct-24 02:00N 14°14' E 152°57'0 0.0 30.2
2014-Oct-24 01:00N 14°14' E 152°57'3 2.5 30.2
2014-Oct-24 00:00N 14°15' E 152°60'0 0.0 30.0
2014-Oct-23 23:00N 14°15' E 152°60'0 0.0 29.9
2014-Oct-23 22:00N 14°15' E 152°60'1 0.2 29.9
2014-Oct-23 19:00N 14°15' E 153°00'2 0.9 29.9
2014-Oct-23 17:00N 14°15' E 153°02'0 0.0 29.9
2014-Oct-23 15:00N 14°15' E 153°02'0 0.0 29.9
2014-Oct-23 14:00N 14°15' E 153°02'2 1.2 30.0
2014-Oct-23 12:00N 14°16' E 153°04'0 0.0 30.0
2014-Oct-23 11:00N 14°16' E 153°04'0 0.0 30.0
2014-Oct-23 10:00N 14°16' E 153°04'1 0.7 30.1
2014-Oct-23 08:00N 14°17' E 153°05'0 0.0 30.2
2014-Oct-23 06:00N 14°17' E 153°05'1 0.5 30.5
2014-Oct-23 04:00N 14°18' E 153°06'1 0.4 32.1
2014-Oct-23 00:00N 14°18' E 153°07'0 0.0 31.0
2014-Oct-22 23:00N 14°18' E 153°07'0 0.0 30.4
2014-Oct-22 22:00N 14°18' E 153°07'0 0.0 30.0
2014-Oct-22 20:00N 14°18' E 153°07'1 0.7 29.9
2014-Oct-22 19:00N 14°19' E 153°08'1 0.4 29.9
2014-Oct-22 17:00N 14°19' E 153°09'3 1.7 30.0
2014-Oct-22 15:00N 14°20' E 153°12'0 0.0 30.0
2014-Oct-22 11:00N 14°20' E 153°12'1 0.9 30.6
2014-Oct-22 10:00N 14°21' E 153°12'0 0.1 31.0
2014-Oct-22 07:00N 14°21' E 153°12'1 0.5 31.9
2014-Oct-22 06:00N 14°22' E 153°13'0 0.0 32.2
2014-Oct-22 05:00N 14°22' E 153°13'0 0.5 32.2
2014-Oct-22 04:00N 14°22' E 153°13'0 0.0 32.1
2014-Oct-22 02:00N 14°22' E 153°13'2 0.5 31.5
2014-Oct-21 23:00N 14°23' E 153°14'1 0.4 30.1
2014-Oct-21 20:00N 14°24' E 153°15'0 0.3 30.0
2014-Oct-21 19:00N 14°24' E 153°15'0 0.4 30.0
2014-Oct-21 18:00N 14°25' E 153°15'   30.0
Track history (hours):
 
Tides and Currents Weather Stations Pressure Air Temp Water Temp Dewpoint Dewpoint Depression Visibility Wind Speed Wind Dir Waves Ship Positions

Drifting buoy 52609

Last reported at 2014-Oct-31 17:00 UTC. Time now 2014-Oct-31 19:30 UTC.
Position N 13°53' E 151°41'.

Water temperature 29.4 ° C

Date/timePositionNaut miles runAvg speedWind from/ knotsBaromVisibWave heightAir tempDewpointWater temp
2014-Oct-31 17:00N 13°53' E 151°41'1 0.4 29.4
2014-Oct-31 15:00N 13°53' E 151°42'0 0.0 29.4
2014-Oct-31 12:00N 13°53' E 151°42'1 0.5 29.4
2014-Oct-31 11:00N 13°53' E 151°43'0 0.0 29.5
2014-Oct-31 10:00N 13°53' E 151°43'2 1.2 29.5
2014-Oct-31 08:00N 13°53' E 151°45'1 1.1 29.5
2014-Oct-31 07:00N 13°52' E 151°46'0 0.0 29.5
2014-Oct-31 06:00N 13°52' E 151°46'2 1.9 29.5
2014-Oct-31 05:00N 13°52' E 151°48'1 0.7 29.5
2014-Oct-31 03:00N 13°51' E 151°49'2 0.6 29.5
2014-Oct-31 00:00N 13°52' E 151°51'3 3.1 29.5
2014-Oct-30 23:00N 13°52' E 151°54'1 0.3 29.5
2014-Oct-30 19:00N 13°53' E 151°55'4 1.1 29.5
2014-Oct-30 15:00N 13°54' E 151°59'4 0.6 29.5
2014-Oct-30 08:00N 13°56' E 152°03'0 0.1 29.6
2014-Oct-30 07:00N 13°56' E 152°03'1 0.6 29.6
2014-Oct-30 05:00N 13°57' E 152°03'1 0.5 29.7
2014-Oct-30 03:00N 13°58' E 152°04'2 0.5 29.7
2014-Oct-29 23:00N 13°59' E 152°06'2 0.6 29.5
2014-Oct-29 20:00N 14°00' E 152°07'0 0.0 29.3
2014-Oct-29 19:00N 14°00' E 152°07'0 0.5 29.4
2014-Oct-29 18:00N 14°00' E 152°07'0 0.4 29.4
2014-Oct-29 17:00N 14°00' E 152°07'2 0.3 29.4
2014-Oct-29 12:00N 13°59' E 152°08'1 0.6 29.5
2014-Oct-29 11:00N 13°59' E 152°08'4 1.1 29.5
2014-Oct-29 07:00N 13°58' E 152°13'1 0.5 29.6
2014-Oct-29 05:00N 13°57' E 152°14'2 1.9 29.6
2014-Oct-29 04:00N 13°57' E 152°16'0 0.0 29.6
2014-Oct-29 03:00N 13°57' E 152°16'0 0.0 29.6
2014-Oct-29 02:00N 13°57' E 152°16'3 1.6 29.6
2014-Oct-29 00:00N 13°58' E 152°19'3 0.6 29.5
2014-Oct-28 18:00N 13°59' E 152°22'2 0.8 29.5
2014-Oct-28 16:00N 13°60' E 152°23'1 0.3 29.5
2014-Oct-28 12:00N 13°60' E 152°25'2 0.9 29.5
2014-Oct-28 10:00N 14°00' E 152°26'1 0.2 29.5
2014-Oct-28 07:00N 14°00' E 152°27'0 0.1 29.6
2014-Oct-28 06:00N 14°00' E 152°27'0 0.1 29.6
2014-Oct-28 05:00N 14°00' E 152°27'2 0.9 29.6
2014-Oct-28 03:00N 13°59' E 152°28'1 0.1 29.6
2014-Oct-27 19:00N 13°59' E 152°28'0 0.2 29.6
2014-Oct-27 18:00N 13°59' E 152°28'1 0.7 29.7
2014-Oct-27 17:00N 13°59' E 152°28'0 0.0 29.6
2014-Oct-27 16:00N 13°59' E 152°28'0 0.4 29.7
2014-Oct-27 15:00N 13°59' E 152°29'1 0.4 29.7
2014-Oct-27 11:00N 13°58' E 152°29'0 0.5 29.7
2014-Oct-27 10:00N 13°57' E 152°30'1 0.3 29.7
2014-Oct-27 08:00N 13°57' E 152°30'0 0.0 29.7
2014-Oct-27 06:00N 13°57' E 152°30'0 0.0 29.8
2014-Oct-27 05:00N 13°57' E 152°30'1 1.2 29.8
2014-Oct-27 04:00N 13°57' E 152°31'3 0.5 29.8
2014-Oct-26 23:00N 13°59' E 152°33'0 0.0 29.7
2014-Oct-26 22:00N 13°59' E 152°33'0 0.0 29.7
2014-Oct-26 20:00N 13°59' E 152°33'0 0.4 29.7
2014-Oct-26 19:00N 13°59' E 152°33'1 1.0 29.7
2014-Oct-26 18:00N 14°00' E 152°34'0 0.0 29.7
2014-Oct-26 16:00N 14°00' E 152°34'0 0.3 29.7
2014-Oct-26 15:00N 14°00' E 152°34'1 0.3 29.7
2014-Oct-26 12:00N 14°01' E 152°35'0 0.0 29.7
2014-Oct-26 11:00N 14°01' E 152°35'1 0.9 29.8
2014-Oct-26 10:00N 14°02' E 152°35'1 0.3 29.8
2014-Oct-26 07:00N 14°01' E 152°36'0 0.3 29.8
2014-Oct-26 06:00N 14°01' E 152°36'1 0.7 29.8
2014-Oct-26 04:00N 14°02' E 152°37'1 0.4 29.9
2014-Oct-26 02:00N 14°03' E 152°38'2 0.4 29.9
2014-Oct-25 20:00N 14°02' E 152°40'1 1.4 29.7
2014-Oct-25 19:00N 14°02' E 152°41'2 2.1 29.7
2014-Oct-25 18:00N 14°04' E 152°43'0 0.3 29.7
2014-Oct-25 17:00N 14°04' E 152°42'0 0.3 29.8
2014-Oct-25 16:00N 14°04' E 152°43'1 1.1 29.8
2014-Oct-25 15:00N 14°05' E 152°43'1 0.3 29.8
2014-Oct-25 11:00N 14°06' E 152°43'2 1.9 29.8
2014-Oct-25 10:00N 14°07' E 152°45'0 0.0 29.8
2014-Oct-25 09:00N 14°07' E 152°45'2 0.5 29.8
2014-Oct-25 06:00N 14°07' E 152°47'1 0.4 29.8
2014-Oct-25 04:00N 14°08' E 152°47'1 0.4 29.9
2014-Oct-25 00:00N 14°09' E 152°48'2 2.4 29.9
2014-Oct-24 23:00N 14°09' E 152°50'0 0.0 29.9
2014-Oct-24 21:00N 14°09' E 152°50'0 0.2 29.8
2014-Oct-24 19:00N 14°09' E 152°50'1 1.5 29.9
2014-Oct-24 18:00N 14°10' E 152°52'0 0.2 29.9
2014-Oct-24 17:00N 14°10' E 152°52'1 0.4 29.9
2014-Oct-24 15:00N 14°10' E 152°52'0 0.0 29.9
2014-Oct-24 14:00N 14°10' E 152°52'3 1.5 29.9
2014-Oct-24 12:00N 14°13' E 152°55'1 1.1 29.9
2014-Oct-24 11:00N 14°12' E 152°56'0 0.0 30.0
2014-Oct-24 10:00N 14°12' E 152°56'1 0.3 30.0
2014-Oct-24 08:00N 14°12' E 152°55'1 0.6 30.1
2014-Oct-24 06:00N 14°12' E 152°56'2 0.8 30.3
2014-Oct-24 04:00N 14°14' E 152°57'0 0.0 30.3
2014-Oct-24 02:00N 14°14' E 152°57'0 0.0 30.2
2014-Oct-24 01:00N 14°14' E 152°57'3 2.5 30.2
2014-Oct-24 00:00N 14°15' E 152°60'0 0.0 30.0
2014-Oct-23 23:00N 14°15' E 152°60'0 0.0 29.9
2014-Oct-23 22:00N 14°15' E 152°60'1 0.2 29.9
2014-Oct-23 19:00N 14°15' E 153°00'2 0.9 29.9
2014-Oct-23 17:00N 14°15' E 153°02'0 0.0 29.9
2014-Oct-23 15:00N 14°15' E 153°02'0 0.0 29.9
2014-Oct-23 14:00N 14°15' E 153°02'2 1.2 30.0
2014-Oct-23 12:00N 14°16' E 153°04'0 0.0 30.0
2014-Oct-23 11:00N 14°16' E 153°04'0 0.0 30.0
2014-Oct-23 10:00N 14°16' E 153°04'1 0.7 30.1
2014-Oct-23 08:00N 14°17' E 153°05'0 0.0 30.2
2014-Oct-23 06:00N 14°17' E 153°05'1 0.5 30.5
2014-Oct-23 04:00N 14°18' E 153°06'1 0.4 32.1
2014-Oct-23 00:00N 14°18' E 153°07'0 0.0 31.0
2014-Oct-22 23:00N 14°18' E 153°07'0 0.0 30.4
2014-Oct-22 22:00N 14°18' E 153°07'0 0.0 30.0
2014-Oct-22 20:00N 14°18' E 153°07'1 0.7 29.9
2014-Oct-22 19:00N 14°19' E 153°08'1 0.4 29.9
2014-Oct-22 17:00N 14°19' E 153°09'3 1.7 30.0
2014-Oct-22 15:00N 14°20' E 153°12'0 0.0 30.0
2014-Oct-22 11:00N 14°20' E 153°12'1 0.9 30.6
2014-Oct-22 10:00N 14°21' E 153°12'0 0.1 31.0
2014-Oct-22 07:00N 14°21' E 153°12'1 0.5 31.9
2014-Oct-22 06:00N 14°22' E 153°13'0 0.0 32.2
2014-Oct-22 05:00N 14°22' E 153°13'0 0.5 32.2
2014-Oct-22 04:00N 14°22' E 153°13'0 0.0 32.1
2014-Oct-22 02:00N 14°22' E 153°13'2 0.5 31.5
2014-Oct-21 23:00N 14°23' E 153°14'1 0.4 30.1
2014-Oct-21 20:00N 14°24' E 153°15'0 0.3 30.0
2014-Oct-21 19:00N 14°24' E 153°15'0 0.4 30.0
2014-Oct-21 18:00N 14°25' E 153°15'   30.0

Dump ship's entire track history